Time;durP1;ratioP1;P1;durP2;ratioP2;P2;SDS_P1;SDS_P2;PMS_P1;PMS_P2;Temp;Humidity;BMP_temperature;BMP_pressure;BME280_temperature;BME280_humidity;BME280_pressure;Samples;Min_cycle;Max_cycle;Signal;HPM_P1;HPM_P2
2023/12/21 00:01:21;;;;;;;2.60;1.20;;;4.80;88.90;;;;;;5083023;28;20204;-83
2023/12/21 00:03:48;;;;;;;2.70;1.10;;;4.80;88.90;;;;;;5084833;28;20521;-86
2023/12/21 00:06:16;;;;;;;2.03;1.83;;;4.80;88.90;;;;;;5079838;28;20200;-86
2023/12/21 00:08:43;;;;;;;1.80;0.93;;;4.80;88.90;;;;;;5079883;28;20228;-85
2023/12/21 00:11:10;;;;;;;1.40;1.17;;;4.90;88.90;;;;;;5080893;28;20199;-83
2023/12/21 00:13:40;;;;;;;1.53;1.30;;;4.90;88.30;;;;;;5087364;28;20637;-86
2023/12/21 00:16:07;;;;;;;1.10;1.00;;;4.90;88.90;;;;;;5061331;28;20197;-86
2023/12/21 00:18:34;;;;;;;3.43;1.47;;;4.90;87.60;;;;;;5083253;28;20201;-85
2023/12/21 00:21:01;;;;;;;1.53;1.10;;;5.00;86.80;;;;;;5087467;28;20201;-85
2023/12/21 00:23:30;;;;;;;0.90;0.90;;;5.10;85.40;;;;;;5080818;28;20246;-85
2023/12/21 00:25:57;;;;;;;2.20;1.20;;;5.10;85.60;;;;;;5071216;28;20196;-84
2023/12/21 00:28:24;;;;;;;4.50;1.27;;;5.10;86.00;;;;;;5085920;28;20224;-84
2023/12/21 00:30:51;;;;;;;2.67;0.90;;;5.00;84.40;;;;;;5088037;28;20215;-84
2023/12/21 00:33:17;;;;;;;1.50;1.07;;;5.00;84.60;;;;;;5083839;28;20211;-86
2023/12/21 00:35:44;;;;;;;2.07;1.10;;;5.00;84.80;;;;;;5091851;28;20197;-83
2023/12/21 00:38:11;;;;;;;2.33;1.10;;;5.00;85.30;;;;;;5082420;28;20211;-86
2023/12/21 00:40:40;;;;;;;1.40;0.83;;;4.90;87.30;;;;;;5084016;28;20224;-83
2023/12/21 00:43:07;;;;;;;1.63;0.90;;;4.90;87.20;;;;;;5070566;28;20203;-83
2023/12/21 00:45:34;;;;;;;1.00;0.80;;;4.90;87.60;;;;;;5082194;28;20198;-84
2023/12/21 00:48:00;;;;;;;1.50;1.00;;;5.00;88.10;;;;;;5079781;28;20515;-84
2023/12/21 00:50:27;;;;;;;1.97;1.10;;;5.00;87.90;;;;;;5089089;28;20197;-84
2023/12/21 00:52:54;;;;;;;0.93;0.83;;;5.00;88.30;;;;;;5090433;28;20204;-84
2023/12/21 00:55:21;;;;;;;1.83;1.10;;;5.00;87.90;;;;;;5088156;28;20857;-84
2023/12/21 00:57:49;;;;;;;1.07;0.90;;;5.00;87.60;;;;;;5087929;28;20199;-84
2023/12/21 01:00:16;;;;;;;1.23;1.00;;;5.00;89.00;;;;;;5085706;28;20671;-84
2023/12/21 01:02:43;;;;;;;2.43;1.20;;;5.00;89.00;;;;;;5088397;28;20192;-84
2023/12/21 01:05:10;;;;;;;1.00;0.90;;;5.00;89.00;;;;;;5074430;28;20217;-84
2023/12/21 01:07:37;;;;;;;1.20;0.80;;;5.00;89.00;;;;;;5090010;28;20252;-84
2023/12/21 01:10:05;;;;;;;2.13;1.00;;;5.00;89.00;;;;;;5088903;28;20201;-84
2023/12/21 01:12:32;;;;;;;1.80;0.80;;;5.00;88.70;;;;;;5089028;28;20209;-86
2023/12/21 01:15:01;;;;;;;1.43;1.00;;;5.10;89.00;;;;;;5086483;28;20200;-84
2023/12/21 01:17:28;;;;;;;1.00;0.90;;;5.20;86.90;;;;;;5084601;28;20197;-84
2023/12/21 01:19:55;;;;;;;0.97;0.87;;;5.20;87.60;;;;;;5082676;28;20638;-84
2023/12/21 01:22:21;;;;;;;1.07;0.80;;;5.20;87.00;;;;;;5089612;28;20581;-84
2023/12/21 01:24:48;;;;;;;0.97;0.97;;;5.30;86.80;;;;;;5060308;28;20635;-84
2023/12/21 01:27:15;;;;;;;1.87;0.87;;;5.20;88.00;;;;;;5087092;28;20201;-84
2023/12/21 01:29:42;;;;;;;2.87;0.80;;;5.30;86.80;;;;;;5079969;28;20204;-84
2023/12/21 01:32:10;;;;;;;1.27;0.73;;;5.30;87.20;;;;;;5086922;28;20679;-84
2023/12/21 01:34:37;;;;;;;1.30;1.00;;;5.20;87.10;;;;;;5078525;28;20193;-84
2023/12/21 01:37:04;;;;;;;0.80;0.80;;;5.20;88.90;;;;;;5087492;28;20197;-84
2023/12/21 01:39:31;;;;;;;1.47;0.97;;;5.20;89.10;;;;;;5086269;28;20215;-84
2023/12/21 01:41:58;;;;;;;0.80;0.63;;;5.30;89.10;;;;;;5086708;28;20193;-84
2023/12/21 01:44:24;;;;;;;0.80;0.80;;;5.30;89.20;;;;;;5087023;28;20208;-84
2023/12/21 01:46:51;;;;;;;1.07;0.70;;;5.30;89.10;;;;;;5082338;28;20205;-84
2023/12/21 01:49:21;;;;;;;0.83;0.83;;;5.30;89.10;;;;;;5087545;28;20279;-84
2023/12/21 01:51:49;;;;;;;0.80;0.80;;;5.30;89.10;;;;;;5082286;28;20200;-84
2023/12/21 01:54:15;;;;;;;0.80;0.80;;;5.30;89.10;;;;;;5087099;28;20536;-84
2023/12/21 01:56:44;;;;;;;1.60;0.90;;;5.30;89.10;;;;;;5085619;28;20196;-84
2023/12/21 01:59:11;;;;;;;0.70;0.70;;;5.30;89.10;;;;;;5081241;28;20261;-84
2023/12/21 02:01:39;;;;;;;2.10;1.00;;;5.30;89.10;;;;;;5085700;28;20219;-84
2023/12/21 02:04:06;;;;;;;2.20;1.00;;;5.30;89.20;;;;;;5084581;28;20215;-84
2023/12/21 02:06:35;;;;;;;1.17;0.93;;;5.30;89.20;;;;;;5083320;28;20204;-84
2023/12/21 02:09:01;;;;;;;1.13;0.83;;;5.30;89.20;;;;;;5081431;28;20231;-84
2023/12/21 02:11:28;;;;;;;0.87;0.87;;;5.40;90.30;;;;;;5085053;28;20200;-84
2023/12/21 02:13:55;;;;;;;0.90;0.90;;;5.30;90.10;;;;;;5087479;28;20193;-83
2023/12/21 02:16:27;;;;;;;0.90;0.90;;;5.30;91.20;;;;;;5085117;28;20216;-83
2023/12/21 02:18:54;;;;;;;0.93;0.80;;;5.30;91.60;;;;;;5079344;28;20200;-84
2023/12/21 02:21:22;;;;;;;1.27;0.80;;;5.20;92.50;;;;;;5090012;28;20193;-84
2023/12/21 02:23:54;;;;;;;0.90;0.67;;;5.10;93.30;;;;;;5083695;28;20193;-84
2023/12/21 02:26:22;;;;;;;0.80;0.80;;;5.10;94.20;;;;;;5078707;28;20204;-84
2023/12/21 02:28:49;;;;;;;0.70;0.70;;;5.00;94.70;;;;;;5084607;28;20220;-84
2023/12/21 02:31:16;;;;;;;0.87;0.87;;;5.00;95.10;;;;;;5085139;28;20197;-84
2023/12/21 02:33:42;;;;;;;0.80;0.80;;;4.90;95.10;;;;;;5081461;28;20199;-84
2023/12/21 02:36:09;;;;;;;0.70;0.70;;;5.00;95.40;;;;;;5091215;28;20193;-84
2023/12/21 02:38:37;;;;;;;0.67;0.67;;;4.90;96.00;;;;;;5083655;28;20197;-84
2023/12/21 02:41:04;;;;;;;0.70;0.70;;;5.00;96.20;;;;;;5087992;28;20254;-83
2023/12/21 02:43:32;;;;;;;0.90;0.90;;;5.00;96.10;;;;;;5087068;28;20273;-85
2023/12/21 02:45:58;;;;;;;0.80;0.70;;;5.00;96.40;;;;;;5072734;28;20243;-84
2023/12/21 02:48:25;;;;;;;0.80;0.80;;;4.90;96.80;;;;;;5065250;28;20680;-84
2023/12/21 02:50:52;;;;;;;0.70;0.70;;;4.90;97.10;;;;;;5091220;28;20197;-84
2023/12/21 02:53:18;;;;;;;1.03;0.60;;;4.90;97.00;;;;;;5088225;28;20189;-84
2023/12/21 02:55:45;;;;;;;0.90;0.80;;;4.90;96.80;;;;;;5087150;28;20677;-84
2023/12/21 02:58:12;;;;;;;0.60;0.60;;;4.90;96.70;;;;;;5085511;28;21063;-85
2023/12/21 03:00:40;;;;;;;0.67;0.67;;;5.00;96.50;;;;;;5088905;28;20199;-84
2023/12/21 03:03:07;;;;;;;0.83;0.70;;;5.00;96.00;;;;;;5089297;28;20203;-84
2023/12/21 03:05:34;;;;;;;0.60;0.60;;;5.00;96.00;;;;;;5089603;28;20224;-84
2023/12/21 03:08:01;;;;;;;0.63;0.63;;;5.00;96.10;;;;;;5073576;28;20238;-84
2023/12/21 03:10:27;;;;;;;0.83;0.83;;;5.10;96.40;;;;;;5088342;28;20203;-84
2023/12/21 03:12:54;;;;;;;0.80;0.80;;;5.00;96.60;;;;;;5089688;28;20206;-84
2023/12/21 03:15:21;;;;;;;0.70;0.70;;;5.00;97.00;;;;;;5090264;28;20266;-83
2023/12/21 03:17:49;;;;;;;0.80;0.80;;;5.00;97.30;;;;;;5065251;28;20196;-84
2023/12/21 03:20:16;;;;;;;0.70;0.70;;;5.00;97.70;;;;;;5089517;28;20200;-84
2023/12/21 03:22:43;;;;;;;0.57;0.57;;;5.00;98.00;;;;;;5088100;28;22365;-84
2023/12/21 03:25:10;;;;;;;0.60;0.60;;;5.00;97.70;;;;;;5090805;28;20192;-83
2023/12/21 03:27:37;;;;;;;2.10;0.60;;;4.90;98.00;;;;;;5084736;28;20204;-83
2023/12/21 03:30:04;;;;;;;0.80;0.80;;;4.90;98.20;;;;;;5085794;28;20217;-83
2023/12/21 03:32:31;;;;;;;0.60;0.60;;;4.90;98.60;;;;;;5088962;28;20579;-84
2023/12/21 03:34:59;;;;;;;0.70;0.70;;;4.80;98.20;;;;;;5069437;28;20292;-84
2023/12/21 03:37:27;;;;;;;0.53;0.53;;;4.80;98.40;;;;;;5090897;28;20575;-83
2023/12/21 03:39:54;;;;;;;1.13;0.57;;;4.80;98.40;;;;;;5090424;28;20193;-83
2023/12/21 03:42:21;;;;;;;1.10;0.60;;;4.90;98.40;;;;;;5091044;28;20212;-84
2023/12/21 03:44:48;;;;;;;0.77;0.77;;;4.90;98.50;;;;;;5086842;28;20208;-84
2023/12/21 03:47:15;;;;;;;0.70;0.70;;;4.90;98.40;;;;;;5090588;28;20209;-84
2023/12/21 03:49:42;;;;;;;0.83;0.57;;;5.00;98.40;;;;;;5090830;28;20216;-84
2023/12/21 03:52:10;;;;;;;0.60;0.57;;;5.00;98.20;;;;;;5089800;28;20197;-84
2023/12/21 03:54:37;;;;;;;0.70;0.70;;;4.90;98.00;;;;;;5084409;28;20201;-85
2023/12/21 03:57:04;;;;;;;1.00;0.60;;;4.90;98.30;;;;;;5085422;28;20644;-84
2023/12/21 03:59:31;;;;;;;0.60;0.60;;;4.90;98.50;;;;;;5087071;28;20208;-84
2023/12/21 04:01:59;;;;;;;0.40;0.40;;;4.90;98.40;;;;;;5089687;28;20193;-84
2023/12/21 04:04:25;;;;;;;1.30;0.67;;;5.00;97.80;;;;;;5088480;28;20244;-84
2023/12/21 04:06:52;;;;;;;1.00;0.50;;;5.10;97.70;;;;;;5087016;28;20203;-84
2023/12/21 04:09:20;;;;;;;0.70;0.70;;;5.10;97.50;;;;;;5086137;28;20221;-84
2023/12/21 04:11:47;;;;;;;0.40;0.40;;;5.10;97.60;;;;;;5092501;28;20278;-84
2023/12/21 04:14:14;;;;;;;0.50;0.50;;;5.20;97.30;;;;;;5071011;28;20197;-85
2023/12/21 04:16:41;;;;;;;1.17;0.60;;;5.30;96.60;;;;;;5091896;28;20196;-84
2023/12/21 04:19:08;;;;;;;0.60;0.60;;;5.30;96.30;;;;;;5089517;28;20200;-84
2023/12/21 04:21:34;;;;;;;0.50;0.50;;;5.40;96.30;;;;;;5086987;28;20205;-84
2023/12/21 04:24:01;;;;;;;1.07;0.97;;;5.40;96.40;;;;;;5085033;28;20192;-84
2023/12/21 04:26:30;;;;;;;0.70;0.70;;;5.40;96.00;;;;;;5085952;28;20197;-84
2023/12/21 04:28:56;;;;;;;0.50;0.50;;;5.40;96.00;;;;;;5075056;28;20220;-84
2023/12/21 04:31:24;;;;;;;0.50;0.50;;;5.40;96.50;;;;;;5089338;28;20212;-84
2023/12/21 04:33:52;;;;;;;0.60;0.60;;;5.50;96.10;;;;;;5079415;28;20213;-84
2023/12/21 04:36:20;;;;;;;0.37;0.37;;;5.50;95.20;;;;;;5081248;28;20805;-84
2023/12/21 04:38:47;;;;;;;0.70;0.70;;;5.50;95.20;;;;;;5081082;28;20200;-84
2023/12/21 04:41:14;;;;;;;0.50;0.50;;;5.50;95.20;;;;;;5091990;28;20203;-85
2023/12/21 04:43:43;;;;;;;0.87;0.87;;;5.60;95.20;;;;;;5083183;28;20219;-84
2023/12/21 04:46:10;;;;;;;0.50;0.50;;;5.60;95.20;;;;;;5085776;28;20284;-84
2023/12/21 04:48:37;;;;;;;0.80;0.80;;;5.60;95.10;;;;;;5088523;28;20212;-84
2023/12/21 04:51:04;;;;;;;0.40;0.40;;;5.70;94.90;;;;;;5085156;28;20575;-84
2023/12/21 04:53:31;;;;;;;0.83;0.83;;;5.80;94.40;;;;;;5089789;28;20200;-84
2023/12/21 04:55:58;;;;;;;0.40;0.40;;;5.70;94.40;;;;;;5081019;28;20208;-84
2023/12/21 04:58:24;;;;;;;0.57;0.57;;;5.80;94.20;;;;;;5082830;28;20208;-87
2023/12/21 05:00:53;;;;;;;0.53;0.53;;;5.80;94.40;;;;;;5082005;28;20568;-84
2023/12/21 05:03:20;;;;;;;0.63;0.63;;;5.80;94.10;;;;;;5087088;28;20204;-84
2023/12/21 05:05:47;;;;;;;0.67;0.40;;;5.80;94.00;;;;;;5086405;28;20220;-84
2023/12/21 05:08:14;;;;;;;0.50;0.50;;;5.80;94.20;;;;;;5088784;28;20216;-85
2023/12/21 05:10:41;;;;;;;0.40;0.40;;;5.80;94.10;;;;;;5085178;28;20307;-86
2023/12/21 05:13:09;;;;;;;1.33;0.53;;;5.80;94.30;;;;;;5086366;28;20200;-86
2023/12/21 05:15:35;;;;;;;0.67;0.50;;;5.90;93.90;;;;;;5084696;28;20200;-84
2023/12/21 05:18:04;;;;;;;1.27;0.50;;;5.90;93.80;;;;;;5082738;28;20216;-85
2023/12/21 05:20:31;;;;;;;0.60;0.60;;;5.90;94.00;;;;;;5088095;28;20205;-85
2023/12/21 05:22:58;;;;;;;0.63;0.63;;;5.90;93.80;;;;;;5083318;28;20192;-85
2023/12/21 05:25:25;;;;;;;0.60;0.60;;;5.90;93.90;;;;;;5082824;28;20205;-86
2023/12/21 05:27:52;;;;;;;0.60;0.60;;;5.90;93.80;;;;;;5079440;28;20201;-86
2023/12/21 05:30:19;;;;;;;0.57;0.57;;;5.90;93.90;;;;;;5069044;28;20220;-86
2023/12/21 05:32:46;;;;;;;0.50;0.50;;;6.00;94.10;;;;;;5079052;28;20197;-86
2023/12/21 05:35:14;;;;;;;1.03;0.50;;;6.00;94.10;;;;;;5089246;28;20275;-85
2023/12/21 05:37:41;;;;;;;0.40;0.40;;;5.90;94.70;;;;;;5083196;28;20201;-85
2023/12/21 05:40:09;;;;;;;0.50;0.50;;;5.90;95.30;;;;;;5090663;28;20200;-85
2023/12/21 05:42:36;;;;;;;0.50;0.50;;;5.80;95.20;;;;;;5086992;28;20617;-85
2023/12/21 05:45:03;;;;;;;0.70;0.60;;;5.90;95.10;;;;;;5082615;28;20194;-85
2023/12/21 05:47:31;;;;;;;0.70;0.70;;;5.90;95.30;;;;;;5087691;28;20192;-85
2023/12/21 05:49:58;;;;;;;0.67;0.67;;;5.90;95.30;;;;;;5085542;28;20216;-85
2023/12/21 05:52:26;;;;;;;0.63;0.60;;;5.80;95.20;;;;;;5088139;28;20210;-85
2023/12/21 05:54:53;;;;;;;0.50;0.50;;;5.90;95.30;;;;;;5085387;28;20203;-86
2023/12/21 05:57:20;;;;;;;0.70;0.70;;;5.90;95.30;;;;;;5084569;28;20736;-87
2023/12/21 05:59:47;;;;;;;0.57;0.57;;;6.00;95.30;;;;;;5080294;28;20213;-86
2023/12/21 06:02:14;;;;;;;1.17;0.60;;;6.10;94.60;;;;;;5077859;28;20197;-88
2023/12/21 06:04:40;;;;;;;0.73;0.73;;;6.00;95.00;;;;;;5064319;28;20304;-87
2023/12/21 06:07:07;;;;;;;0.50;0.50;;;6.00;94.80;;;;;;5083032;28;20203;-86
2023/12/21 06:09:35;;;;;;;0.53;0.53;;;6.10;94.30;;;;;;5082577;28;20216;-86
2023/12/21 06:12:03;;;;;;;0.50;0.50;;;6.10;94.50;;;;;;5089571;28;20196;-86
2023/12/21 06:14:30;;;;;;;1.10;0.80;;;6.10;94.00;;;;;;5064186;28;20196;-86
2023/12/21 06:16:57;;;;;;;0.50;0.50;;;6.10;94.00;;;;;;5080125;28;20185;-86
2023/12/21 06:19:24;;;;;;;0.70;0.70;;;6.20;93.80;;;;;;5084691;28;20211;-86
2023/12/21 06:21:51;;;;;;;0.60;0.60;;;6.20;93.70;;;;;;5088411;28;20201;-86
2023/12/21 06:24:17;;;;;;;0.50;0.50;;;6.30;93.70;;;;;;5086171;28;20202;-86
2023/12/21 06:26:46;;;;;;;1.13;0.60;;;6.30;93.30;;;;;;5088301;28;20196;-85
2023/12/21 06:29:12;;;;;;;0.57;0.57;;;6.30;93.50;;;;;;5093802;28;20227;-85
2023/12/21 06:31:40;;;;;;;0.80;0.80;;;6.40;93.00;;;;;;5082977;28;20205;-86
2023/12/21 06:34:07;;;;;;;0.50;0.50;;;6.40;93.40;;;;;;5080730;28;20190;-85
2023/12/21 06:36:34;;;;;;;0.80;0.80;;;6.40;93.30;;;;;;5089858;28;20193;-86
2023/12/21 06:39:01;;;;;;;0.50;0.50;;;6.40;92.70;;;;;;5084263;28;20201;-86
2023/12/21 06:41:28;;;;;;;0.40;0.40;;;6.40;92.90;;;;;;5088322;28;20628;-85
2023/12/21 06:43:57;;;;;;;0.80;0.60;;;6.50;92.70;;;;;;5090801;28;20223;-85
2023/12/21 06:46:24;;;;;;;0.60;0.60;;;6.50;92.70;;;;;;5093285;28;20204;-86
2023/12/21 06:48:50;;;;;;;0.47;0.47;;;6.50;92.70;;;;;;5091826;28;20300;-86
2023/12/21 06:51:17;;;;;;;0.50;0.50;;;6.50;92.70;;;;;;5090743;28;20221;-86
2023/12/21 06:53:44;;;;;;;1.37;0.60;;;6.50;92.50;;;;;;5088988;28;20196;-86
2023/12/21 06:56:11;;;;;;;0.70;0.70;;;6.60;92.60;;;;;;5089583;28;20197;-85
2023/12/21 06:58:38;;;;;;;0.60;0.60;;;6.50;92.50;;;;;;5083663;28;20243;-86
2023/12/21 07:01:06;;;;;;;0.77;0.73;;;6.50;92.40;;;;;;5086753;28;20655;-85
2023/12/21 07:03:33;;;;;;;2.03;1.43;;;6.50;92.70;;;;;;5084456;28;20198;-85
2023/12/21 07:05:59;;;;;;;3.40;2.67;;;6.60;92.30;;;;;;5087254;28;20203;-85
2023/12/21 07:08:26;;;;;;;0.77;0.77;;;6.60;92.40;;;;;;5086085;28;20200;-84
2023/12/21 07:10:54;;;;;;;0.70;0.70;;;6.60;92.30;;;;;;5090499;28;20213;-84
2023/12/21 07:13:21;;;;;;;0.83;0.80;;;6.60;92.10;;;;;;5086604;28;20189;-84
2023/12/21 07:15:47;;;;;;;1.07;0.93;;;6.60;92.20;;;;;;5086574;28;20197;-83
2023/12/21 07:18:16;;;;;;;1.63;1.20;;;6.70;92.10;;;;;;5088952;28;20196;-86
2023/12/21 07:20:43;;;;;;;0.60;0.60;;;6.70;92.30;;;;;;5084886;28;20193;-84
2023/12/21 07:23:10;;;;;;;1.57;0.97;;;6.70;92.20;;;;;;5086642;28;20201;-85
2023/12/21 07:25:36;;;;;;;1.47;1.37;;;6.70;92.00;;;;;;5083635;28;20394;-84
2023/12/21 07:28:04;;;;;;;5.50;2.10;;;6.70;92.10;;;;;;5082558;28;20204;-91
2023/12/21 07:30:30;;;;;;;0.90;0.87;;;6.80;92.00;;;;;;5084032;28;20228;-88
2023/12/21 07:32:57;;;;;;;1.97;1.60;;;6.80;92.40;;;;;;5091408;28;20687;-87
2023/12/21 07:35:25;;;;;;;0.80;0.80;;;6.80;92.10;;;;;;5087430;28;20201;-88
2023/12/21 07:37:52;;;;;;;1.30;0.87;;;6.80;92.00;;;;;;5087478;28;20189;-87
2023/12/21 07:40:19;;;;;;;1.43;1.33;;;6.80;91.90;;;;;;5090378;28;20200;-86
2023/12/21 07:42:46;;;;;;;1.53;0.93;;;6.90;91.40;;;;;;5084966;28;20200;-85
2023/12/21 07:45:13;;;;;;;0.60;0.60;;;6.90;91.50;;;;;;5083801;28;21173;-86
2023/12/21 07:47:39;;;;;;;0.90;0.90;;;6.90;91.60;;;;;;5084749;28;20208;-86
2023/12/21 07:50:07;;;;;;;2.30;1.80;;;6.90;91.80;;;;;;5084173;28;20311;-86
2023/12/21 07:52:35;;;;;;;2.23;0.93;;;7.00;91.50;;;;;;5086216;28;20567;-85
2023/12/21 07:55:02;;;;;;;1.40;1.30;;;7.00;91.30;;;;;;5086200;28;20197;-88
2023/12/21 07:57:29;;;;;;;0.87;0.87;;;7.10;91.20;;;;;;5069350;28;20218;-89
2023/12/21 07:59:56;;;;;;;1.35;1.00;;;7.00;91.30;;;;;;5081619;28;20201;-88
2023/12/21 08:02:23;;;;;;;0.80;0.80;;;7.00;91.20;;;;;;5089817;28;20218;-90
2023/12/21 08:04:50;;;;;;;0.60;0.60;;;7.10;91.20;;;;;;5084641;28;20217;-90
2023/12/21 08:07:17;;;;;;;0.77;0.77;;;7.20;90.50;;;;;;5067445;28;20204;-87
2023/12/21 08:09:46;;;;;;;1.02;0.90;;;7.30;90.40;;;;;;5082251;28;20229;-90
2023/12/21 08:12:14;;;;;;;0.60;0.60;;;7.20;90.30;;;;;;5081101;28;20251;-90
2023/12/21 08:14:41;;;;;;;0.80;0.80;;;7.20;90.70;;;;;;5060905;28;20324;-89
2023/12/21 08:17:10;;;;;;;2.17;0.50;;;7.30;90.50;;;;;;5081742;28;20228;-89
2023/12/21 08:19:37;;;;;;;1.13;0.80;;;7.30;90.10;;;;;;5088124;28;20197;-89
2023/12/21 08:22:04;;;;;;;1.07;0.70;;;7.30;90.10;;;;;;5086277;28;20192;-89
2023/12/21 08:24:31;;;;;;;1.10;1.07;;;7.40;90.10;;;;;;5082362;28;20630;-88
2023/12/21 08:26:59;;;;;;;0.60;0.57;;;7.40;90.10;;;;;;5081826;28;20202;-88
2023/12/21 08:29:26;;;;;;;0.70;0.70;;;7.40;90.10;;;;;;5079459;28;20208;-88
2023/12/21 08:31:53;;;;;;;0.80;0.52;;;7.50;89.90;;;;;;5081053;28;20229;-88
2023/12/21 08:34:22;;;;;;;0.68;0.68;;;7.60;89.50;;;;;;5071247;28;20747;-87
2023/12/21 08:36:50;;;;;;;1.70;0.60;;;7.60;90.10;;;;;;5086566;28;20653;-88
2023/12/21 08:39:17;;;;;;;0.60;0.60;;;7.60;90.10;;;;;;5086409;28;20194;-88
2023/12/21 08:41:44;;;;;;;0.57;0.57;;;7.60;88.90;;;;;;5068421;28;20199;-88
2023/12/21 08:44:12;;;;;;;0.60;0.60;;;7.60;88.30;;;;;;5085792;28;20208;-88
2023/12/21 08:46:42;;;;;;;0.60;0.60;;;7.60;88.20;;;;;;5083806;28;20656;-87
2023/12/21 08:49:11;;;;;;;0.40;0.40;;;7.70;88.70;;;;;;5071572;28;20204;-86
2023/12/21 08:51:38;;;;;;;2.65;0.60;;;7.70;88.00;;;;;;5062600;28;20279;-85
2023/12/21 08:54:06;;;;;;;2.23;0.80;;;7.60;88.40;;;;;;5091289;28;20313;-87
2023/12/21 08:56:33;;;;;;;0.95;0.95;;;7.70;88.90;;;;;;5084682;28;20221;-88
2023/12/21 08:59:01;;;;;;;0.50;0.50;;;7.80;88.50;;;;;;5088855;28;20189;-88
2023/12/21 09:01:30;;;;;;;2.15;1.40;;;7.80;89.00;;;;;;5083576;28;20197;-89
2023/12/21 09:03:58;;;;;;;2.38;1.75;;;7.80;88.60;;;;;;5085120;28;20303;-90
2023/12/21 09:06:24;;;;;;;0.70;0.70;;;7.80;89.10;;;;;;5083541;28;20201;-90
2023/12/21 09:08:51;;;;;;;1.27;1.17;;;7.90;87.50;;;;;;5084779;28;20197;-89
2023/12/21 09:11:18;;;;;;;2.33;2.00;;;7.80;87.70;;;;;;5067017;28;20772;-86
2023/12/21 09:13:45;;;;;;;0.40;0.40;;;7.90;86.60;;;;;;5085896;28;20199;-88
2023/12/21 09:16:14;;;;;;;2.50;1.50;;;7.90;86.00;;;;;;5089459;28;20208;-90
2023/12/21 09:18:44;;;;;;;0.77;0.63;;;7.90;86.90;;;;;;5083263;28;20199;-88
2023/12/21 09:21:11;;;;;;;1.05;0.95;;;7.90;85.80;;;;;;5083161;28;20204;-91
2023/12/21 09:23:38;;;;;;;1.52;1.42;;;7.90;85.50;;;;;;5071783;28;20196;-91
2023/12/21 09:26:08;;;;;;;1.10;0.95;;;7.90;84.70;;;;;;5085138;28;20725;-92
2023/12/21 09:28:35;;;;;;;6.03;4.32;;;7.90;85.30;;;;;;5055076;28;20200;-89
2023/12/21 09:31:03;;;;;;;2.17;1.38;;;8.00;84.50;;;;;;5085998;28;20701;-91
2023/12/21 09:33:31;;;;;;;2.30;2.10;;;8.00;83.70;;;;;;5082834;28;20538;-90
2023/12/21 09:35:59;;;;;;;1.00;0.95;;;8.10;83.40;;;;;;5081657;28;20201;-90
2023/12/21 09:38:26;;;;;;;1.95;1.65;;;8.10;83.20;;;;;;5078035;28;20204;-89
2023/12/21 09:40:53;;;;;;;2.25;1.70;;;8.10;82.70;;;;;;5084106;28;20204;-89
2023/12/21 09:43:22;;;;;;;0.60;0.60;;;8.10;82.70;;;;;;5085580;28;20200;-90
2023/12/21 09:45:51;;;;;;;2.22;0.77;;;8.10;82.50;;;;;;5061794;28;20197;-87
2023/12/21 09:48:21;;;;;;;0.98;0.80;;;8.10;82.50;;;;;;5079544;28;20204;-89
2023/12/21 09:50:50;;;;;;;0.60;0.60;;;8.10;82.50;;;;;;5081761;28;20688;-89
2023/12/21 09:53:22;;;;;;;2.67;0.52;;;8.20;83.00;;;;;;5088481;28;20683;-90
2023/12/21 09:55:50;;;;;;;0.60;0.60;;;8.20;82.50;;;;;;5083537;28;20954;-90
2023/12/21 09:58:18;;;;;;;0.60;0.60;;;8.20;82.60;;;;;;5061483;28;20238;-89
2023/12/21 10:00:45;;;;;;;1.05;0.60;;;8.20;82.00;;;;;;5081037;28;20300;-90
2023/12/21 10:03:11;;;;;;;0.80;0.80;;;8.30;82.20;;;;;;5084531;28;20200;-89
2023/12/21 10:05:40;;;;;;;1.30;0.73;;;8.30;81.60;;;;;;5079955;28;20228;-90
2023/12/21 10:08:07;;;;;;;1.85;1.10;;;8.20;81.90;;;;;;5082295;28;20571;-90
2023/12/21 10:10:38;;;;;;;0.80;0.63;;;8.30;82.70;;;;;;5082643;28;20219;-90
2023/12/21 10:13:25;;;;;;;2.38;0.73;;;8.20;81.90;;;;;;5080061;28;20189;-88
2023/12/21 10:15:58;;;;;;;1.73;0.50;;;8.20;82.10;;;;;;5082857;28;20709;-90
2023/12/21 10:18:26;;;;;;;0.70;0.68;;;8.20;82.50;;;;;;5084394;28;20205;-86
2023/12/21 10:20:53;;;;;;;0.80;0.80;;;8.20;83.00;;;;;;5079209;28;20302;-87
2023/12/21 10:23:20;;;;;;;2.15;1.05;;;8.20;83.40;;;;;;5079820;28;20200;-88
2023/12/21 10:25:50;;;;;;;0.68;0.68;;;8.30;83.40;;;;;;5085376;28;20224;-87
2023/12/21 10:28:17;;;;;;;0.77;0.77;;;8.20;82.90;;;;;;5082147;28;20200;-87
2023/12/21 10:30:43;;;;;;;3.50;0.65;;;8.20;83.90;;;;;;5081778;28;20221;-87
2023/12/21 10:33:12;;;;;;;0.93;0.90;;;8.20;83.30;;;;;;5076984;28;20201;-86
2023/12/21 10:35:39;;;;;;;1.02;0.73;;;8.20;84.00;;;;;;5085135;28;20242;-87
2023/12/21 10:38:06;;;;;;;0.52;0.50;;;8.20;83.00;;;;;;5082743;28;20649;-87
2023/12/21 10:40:33;;;;;;;1.02;0.90;;;8.20;82.80;;;;;;5081051;28;20199;-86
2023/12/21 10:43:03;;;;;;;0.82;0.82;;;8.20;83.30;;;;;;5084490;28;20197;-87
2023/12/21 10:45:31;;;;;;;2.30;0.88;;;8.30;83.50;;;;;;5084910;28;20211;-86
2023/12/21 10:48:01;;;;;;;0.80;0.80;;;8.30;82.50;;;;;;5084561;28;20675;-87
2023/12/21 10:50:30;;;;;;;0.85;0.85;;;8.30;83.30;;;;;;5083354;28;20584;-86
2023/12/21 10:53:00;;;;;;;0.90;0.90;;;8.30;82.80;;;;;;5083958;28;20190;-87
2023/12/21 10:55:28;;;;;;;2.17;0.90;;;8.30;82.50;;;;;;5085115;28;20201;-88
2023/12/21 10:57:57;;;;;;;0.70;0.70;;;8.40;82.70;;;;;;5068154;28;20197;-88
2023/12/21 11:00:25;;;;;;;0.98;0.73;;;8.40;82.60;;;;;;5069923;28;20215;-89
2023/12/21 11:02:53;;;;;;;0.98;0.80;;;8.50;82.30;;;;;;5084294;28;20193;-88
2023/12/21 11:05:22;;;;;;;0.50;0.50;;;8.50;81.80;;;;;;5082358;28;20228;-88
2023/12/21 11:07:50;;;;;;;0.77;0.70;;;8.50;81.90;;;;;;5090791;28;20587;-87
2023/12/21 11:10:17;;;;;;;0.65;0.65;;;8.60;81.80;;;;;;5085734;28;20192;-88
2023/12/21 11:12:44;;;;;;;2.15;0.80;;;8.60;82.80;;;;;;5086821;28;20224;-88
2023/12/21 11:15:12;;;;;;;1.48;0.65;;;8.60;83.20;;;;;;5086596;28;20195;-84
2023/12/21 11:17:44;;;;;;;0.73;0.70;;;8.60;82.20;;;;;;5083010;28;20578;-88
2023/12/21 11:20:16;;;;;;;0.75;0.75;;;8.60;81.90;;;;;;5086708;28;20656;-90
2023/12/21 11:22:44;;;;;;;1.98;0.82;;;8.70;82.60;;;;;;5071274;28;20200;-89
2023/12/21 11:25:12;;;;;;;0.65;0.60;;;8.70;82.50;;;;;;5072883;28;20280;-91
2023/12/21 11:27:40;;;;;;;2.05;0.80;;;8.70;82.80;;;;;;5079726;28;20205;-88
2023/12/21 11:30:09;;;;;;;0.68;0.68;;;8.70;82.10;;;;;;5088597;28;20201;-88
2023/12/21 11:32:36;;;;;;;3.90;1.00;;;8.70;82.80;;;;;;5081231;28;20269;-88
2023/12/21 11:35:18;;;;;;;0.60;0.60;;;8.70;82.70;;;;;;5087173;28;20200;-88
2023/12/21 11:37:45;;;;;;;1.52;0.80;;;8.70;82.50;;;;;;5089032;28;20200;-86
2023/12/21 11:40:14;;;;;;;0.60;0.60;;;8.70;82.80;;;;;;5091898;28;20197;-86
2023/12/21 11:42:46;;;;;;;0.70;0.70;;;8.70;82.40;;;;;;5086363;28;20211;-87
2023/12/21 11:45:22;;;;;;;0.80;0.80;;;8.70;83.60;;;;;;5089907;28;20241;-89
2023/12/21 11:47:49;;;;;;;1.88;1.10;;;8.70;83.90;;;;;;5088242;28;20208;-90
2023/12/21 11:50:20;;;;;;;0.80;0.80;;;8.60;83.40;;;;;;5059402;28;20199;-89
2023/12/21 11:52:47;;;;;;;0.82;0.82;;;8.60;83.70;;;;;;5091360;28;20216;-88
2023/12/21 11:55:24;;;;;;;1.33;0.88;;;8.50;83.80;;;;;;5084487;28;20200;-88
2023/12/21 11:57:51;;;;;;;1.13;0.82;;;8.60;84.00;;;;;;5088520;28;20574;-88
2023/12/21 12:00:18;;;;;;;1.00;0.95;;;8.60;83.70;;;;;;5085591;28;20200;-89
2023/12/21 12:02:46;;;;;;;1.13;0.75;;;8.60;83.50;;;;;;5085355;28;20209;-87
2023/12/21 12:05:23;;;;;;;0.70;0.70;;;8.60;83.50;;;;;;5088404;28;20216;-86
2023/12/21 12:07:50;;;;;;;0.68;0.68;;;8.60;82.80;;;;;;5084659;28;20192;-87
2023/12/21 12:10:18;;;;;;;0.60;0.60;;;8.70;82.90;;;;;;5082522;28;20200;-86
2023/12/21 12:12:45;;;;;;;1.63;0.80;;;8.60;83.20;;;;;;5082762;28;20212;-87
2023/12/21 12:15:12;;;;;;;1.10;1.02;;;8.70;82.80;;;;;;5080036;28;20200;-89
2023/12/21 12:17:41;;;;;;;2.05;0.90;;;8.70;83.50;;;;;;5081522;28;20193;-87
2023/12/21 12:20:10;;;;;;;3.97;0.60;;;8.70;82.40;;;;;;5066170;28;20234;-87
2023/12/21 12:22:38;;;;;;;0.80;0.73;;;8.80;82.90;;;;;;5087822;28;20199;-87
2023/12/21 12:25:06;;;;;;;0.95;0.60;;;8.80;82.80;;;;;;5084584;28;20196;-87
2023/12/21 12:27:33;;;;;;;0.70;0.70;;;8.70;82.90;;;;;;5087658;28;20209;-90
2023/12/21 12:30:01;;;;;;;1.42;0.70;;;8.70;82.80;;;;;;5081961;28;20288;-89
2023/12/21 12:32:28;;;;;;;1.52;1.42;;;8.70;83.90;;;;;;5085355;28;21068;-89
2023/12/21 12:34:55;;;;;;;0.70;0.70;;;8.70;83.90;;;;;;5068049;28;20188;-88
2023/12/21 12:37:21;;;;;;;3.88;0.80;;;8.70;83.80;;;;;;5081813;28;20201;-89
2023/12/21 12:39:51;;;;;;;0.68;0.60;;;8.70;84.70;;;;;;5083066;28;20648;-89
2023/12/21 12:42:18;;;;;;;1.08;0.60;;;8.70;84.40;;;;;;5073827;28;20201;-89
2023/12/21 12:44:45;;;;;;;1.77;0.77;;;8.70;84.20;;;;;;5080499;28;20218;-89
2023/12/21 12:47:12;;;;;;;0.80;0.80;;;8.80;84.40;;;;;;5081428;28;20203;-89
2023/12/21 12:49:41;;;;;;;0.95;0.77;;;8.70;85.10;;;;;;5084782;28;20201;-89
2023/12/21 12:52:08;;;;;;;0.80;0.80;;;8.70;85.60;;;;;;5082640;28;20221;-89
2023/12/21 12:54:35;;;;;;;0.93;0.93;;;8.70;85.40;;;;;;5088989;28;20200;-89
2023/12/21 12:57:04;;;;;;;0.90;0.90;;;8.70;85.40;;;;;;5085268;28;20291;-90
2023/12/21 12:59:33;;;;;;;2.20;0.95;;;8.70;85.40;;;;;;5085669;28;20202;-89